createdAt,value
2022-11-06T00:00:09.100Z,4.37
2022-11-06T00:05:27.841Z,4.35
2022-11-06T00:10:31.881Z,4.27
2022-11-06T00:15:32.917Z,4.10
2022-11-06T00:20:33.713Z,4.16
2022-11-06T00:25:36.218Z,4.18
2022-11-06T00:30:37.210Z,4.21
2022-11-06T00:35:38.925Z,4.18
2022-11-06T00:40:41.087Z,4.18
2022-11-06T00:45:41.900Z,4.03
2022-11-06T00:50:42.699Z,3.94
2022-11-06T00:55:44.902Z,4.03
2022-11-06T01:00:45.669Z,3.93
2022-11-06T01:05:46.532Z,3.91
2022-11-06T01:10:49.024Z,3.77
2022-11-06T01:15:50.077Z,3.85
2022-11-06T01:20:50.842Z,3.85
2022-11-06T01:26:03.190Z,3.86
2022-11-06T01:31:04.826Z,3.89
2022-11-06T01:36:06.960Z,3.93
2022-11-06T01:41:09.852Z,3.95
2022-11-06T01:46:11.082Z,3.93
2022-11-06T01:51:13.156Z,3.88
2022-11-06T01:56:16.318Z,3.84
2022-11-06T02:01:17.164Z,3.78
2022-11-06T02:06:18.297Z,3.78
2022-11-06T02:11:20.467Z,3.73
2022-11-06T02:16:28.247Z,3.61
2022-11-06T02:22:01.102Z,3.63
2022-11-06T02:27:11.455Z,3.54
2022-11-06T02:32:17.053Z,3.49
2022-11-06T02:37:21.832Z,3.40
2022-11-06T02:42:27.501Z,3.39
2022-11-06T02:47:32.847Z,3.37
2022-11-06T02:52:38.201Z,3.29
2022-11-06T02:57:44.778Z,3.26
2022-11-06T03:02:51.917Z,3.27
2022-11-06T03:07:56.223Z,3.23
2022-11-06T03:13:01.626Z,3.27
2022-11-06T03:18:11.161Z,3.26
2022-11-06T03:23:19.146Z,3.21
2022-11-06T03:28:26.608Z,3.20
2022-11-06T03:33:35.123Z,3.18
2022-11-06T03:38:42.603Z,3.16
2022-11-06T03:43:48.983Z,3.11
2022-11-06T03:48:53.417Z,3.08
2022-11-06T03:54:00.280Z,3.05
2022-11-06T03:59:05.505Z,3.04
2022-11-06T04:04:12.880Z,3.06
2022-11-06T04:09:35.206Z,3.08
2022-11-06T04:14:40.567Z,3.08
2022-11-06T04:19:47.773Z,3.12
2022-11-06T04:25:18.541Z,3.12
2022-11-06T04:30:22.984Z,3.04
2022-11-06T04:35:32.593Z,3.03
2022-11-06T04:40:43.059Z,3.06
2022-11-06T04:45:49.583Z,3.04
2022-11-06T04:50:55.128Z,3.05
2022-11-06T04:56:00.863Z,3.04
2022-11-06T05:01:03.123Z,2.95
2022-11-06T05:06:03.970Z,2.96
2022-11-06T05:11:04.842Z,2.93
2022-11-06T05:16:07.587Z,2.86
2022-11-06T05:21:26.360Z,2.78
2022-11-06T05:26:27.193Z,2.82
2022-11-06T05:31:29.346Z,2.77
2022-11-06T05:36:30.219Z,2.76
2022-11-06T05:41:30.999Z,2.80
2022-11-06T05:46:48.311Z,2.74
2022-11-06T05:51:49.803Z,2.77
2022-11-06T05:56:50.755Z,2.80
2022-11-06T06:01:53.079Z,2.75
2022-11-06T06:06:54.133Z,2.71
2022-11-06T06:11:55.534Z,2.77
2022-11-06T06:16:57.667Z,2.80
2022-11-06T06:21:58.444Z,2.80
2022-11-06T06:26:59.335Z,2.86
2022-11-06T06:32:01.675Z,2.88
2022-11-06T06:37:02.559Z,2.91
2022-11-06T06:42:03.459Z,2.99
2022-11-06T06:47:06.697Z,3.04
2022-11-06T06:52:07.890Z,3.10
2022-11-06T06:57:09.409Z,3.18
2022-11-06T07:02:11.962Z,3.23
2022-11-06T07:07:13.312Z,3.29
2022-11-06T07:12:14.554Z,3.34
2022-11-06T07:17:16.914Z,3.52
2022-11-06T07:22:21.684Z,3.62
2022-11-06T07:27:29.114Z,3.73
2022-11-06T07:32:31.390Z,3.85
2022-11-06T07:37:32.193Z,3.94
2022-11-06T07:42:32.997Z,4.06
2022-11-06T07:47:39.328Z,4.22
2022-11-06T07:52:40.199Z,4.37
2022-11-06T07:57:41.452Z,4.51
2022-11-06T08:02:43.813Z,4.65
2022-11-06T08:07:44.699Z,4.81
2022-11-06T08:12:47.311Z,5.02
2022-11-06T08:17:49.512Z,5.16
2022-11-06T08:22:50.394Z,5.35
2022-11-06T08:27:51.178Z,5.55
2022-11-06T08:32:53.731Z,5.63
2022-11-06T08:37:54.679Z,5.84
2022-11-06T08:43:00.282Z,6.24
2022-11-06T08:48:04.323Z,7.04
2022-11-06T08:53:06.637Z,7.19
2022-11-06T08:58:08.104Z,6.83
2022-11-06T09:03:13.389Z,6.91
2022-11-06T09:08:16.082Z,7.00
2022-11-06T09:13:17.680Z,7.01
2022-11-06T09:18:20.018Z,7.22
2022-11-06T09:23:20.829Z,7.32
2022-11-06T09:28:21.713Z,7.51
2022-11-06T09:33:24.074Z,7.71
2022-11-06T09:38:24.953Z,7.87
2022-11-06T09:44:05.009Z,8.09
2022-11-06T09:49:17.827Z,8.31
2022-11-06T09:54:22.785Z,8.49
2022-11-06T09:59:24.042Z,8.62
2022-11-06T10:04:54.173Z,8.69
2022-11-06T10:09:55.340Z,8.79
2022-11-06T10:15:04.641Z,9.02
2022-11-06T10:20:14.352Z,9.19
2022-11-06T10:25:22.080Z,9.31
2022-11-06T10:30:23.070Z,9.39
2022-11-06T10:35:27.946Z,9.50
2022-11-06T10:40:32.752Z,9.67
2022-11-06T10:45:39.860Z,9.89
2022-11-06T10:50:51.288Z,10.09
2022-11-06T10:56:11.309Z,10.15
2022-11-06T11:01:15.545Z,10.35
2022-11-06T11:06:18.662Z,10.41
2022-11-06T11:11:25.583Z,10.63
2022-11-06T11:16:29.303Z,10.79
2022-11-06T11:21:31.504Z,10.89
2022-11-06T11:26:34.784Z,10.93
2022-11-06T11:31:37.230Z,11.02
2022-11-06T11:36:55.667Z,11.10
2022-11-06T11:42:18.115Z,11.19
2022-11-06T11:47:24.437Z,11.19
2022-11-06T11:52:26.658Z,11.23
2022-11-06T11:57:28.606Z,11.19
2022-11-06T12:02:35.823Z,11.35
2022-11-06T12:07:46.278Z,11.42
2022-11-06T12:12:51.001Z,11.50
2022-11-06T12:17:55.528Z,11.54
2022-11-06T12:23:01.106Z,11.66
2022-11-06T12:28:04.871Z,11.72
2022-11-06T12:33:12.977Z,11.77
2022-11-06T12:38:22.160Z,11.79
2022-11-06T12:43:31.164Z,11.77
2022-11-06T12:48:52.169Z,11.90
2022-11-06T12:54:06.727Z,11.92
2022-11-06T12:59:22.644Z,11.90
2022-11-06T13:04:33.662Z,12.02
2022-11-06T13:09:42.916Z,11.99
2022-11-06T13:14:54.895Z,11.85
2022-11-06T13:20:04.033Z,11.81
2022-11-06T13:25:13.515Z,11.75
2022-11-06T13:30:18.028Z,11.73
2022-11-06T13:35:22.826Z,11.67
2022-11-06T13:40:31.001Z,11.51
2022-11-06T13:45:39.005Z,11.50
2022-11-06T13:50:48.584Z,11.39
2022-11-06T13:56:01.609Z,11.21
2022-11-06T14:01:12.893Z,10.97
2022-11-06T14:06:19.835Z,10.85
2022-11-06T14:11:27.895Z,10.56
2022-11-06T14:16:31.681Z,10.44
2022-11-06T14:21:51.829Z,10.17
2022-11-06T14:26:54.116Z,9.88
2022-11-06T14:32:02.226Z,9.69
2022-11-06T14:37:46.769Z,9.43
2022-11-06T14:42:49.283Z,9.35
2022-11-06T14:47:54.424Z,9.15
2022-11-06T14:52:58.032Z,9.04
2022-11-06T14:58:13.547Z,8.89
2022-11-06T15:03:30.459Z,8.59
2022-11-06T15:08:54.469Z,8.30
2022-11-06T15:13:56.748Z,8.01
2022-11-06T15:18:57.775Z,7.76
2022-11-06T15:24:05.585Z,7.94
2022-11-06T15:29:19.160Z,7.83
2022-11-06T15:34:29.202Z,7.86
2022-11-06T15:39:39.223Z,7.60
2022-11-06T15:44:43.828Z,7.55
2022-11-06T15:49:44.690Z,7.59
2022-11-06T15:54:48.776Z,7.52
2022-11-06T15:59:51.476Z,7.36
2022-11-06T16:04:53.321Z,7.40
2022-11-06T16:09:54.513Z,7.12
2022-11-06T16:14:56.729Z,6.93
2022-11-06T16:20:00.227Z,6.68
2022-11-06T16:25:04.041Z,6.72
2022-11-06T16:30:25.515Z,6.67
2022-11-06T16:35:35.343Z,6.89
2022-11-06T16:40:50.547Z,6.68
2022-11-06T16:45:58.479Z,6.58
2022-11-06T16:51:01.709Z,6.56
2022-11-06T16:56:04.447Z,6.48
2022-11-06T17:01:07.938Z,6.35
2022-11-06T17:06:21.293Z,6.44
2022-11-06T17:11:23.306Z,6.41
2022-11-06T17:16:27.413Z,6.29
2022-11-06T17:21:28.266Z,6.14
2022-11-06T17:26:31.583Z,6.14
2022-11-06T17:31:33.884Z,6.24
2022-11-06T17:36:36.927Z,6.16
2022-11-06T17:41:37.767Z,6.02
2022-11-06T17:46:42.325Z,5.98
2022-11-06T17:51:53.485Z,6.00
2022-11-06T17:56:55.017Z,5.95
2022-11-06T18:01:57.508Z,5.87
2022-11-06T18:06:58.971Z,5.91
2022-11-06T18:12:00.248Z,5.96
2022-11-06T18:17:02.622Z,6.01
2022-11-06T18:22:06.740Z,6.01
2022-11-06T18:27:08.040Z,6.00
2022-11-06T18:32:10.299Z,6.10
2022-11-06T18:37:11.166Z,6.02
2022-11-06T18:42:12.007Z,6.07
2022-11-06T18:47:15.201Z,6.16
2022-11-06T18:52:32.534Z,6.09
2022-11-06T18:57:36.943Z,6.09
2022-11-06T19:02:39.167Z,6.18
2022-11-06T19:07:40.063Z,6.29
2022-11-06T19:12:41.361Z,6.21
2022-11-06T19:17:43.671Z,6.16
2022-11-06T19:22:44.505Z,6.20
2022-11-06T19:27:45.364Z,6.18
2022-11-06T19:32:47.577Z,6.22
2022-11-06T19:37:48.395Z,6.28
2022-11-06T19:42:49.288Z,6.23
2022-11-06T19:47:52.030Z,6.26
2022-11-06T19:52:53.602Z,6.23
2022-11-06T19:57:54.544Z,6.21
2022-11-06T20:02:56.724Z,6.21
2022-11-06T20:07:57.612Z,6.25
2022-11-06T20:12:58.483Z,6.29
2022-11-06T20:18:00.736Z,6.28
2022-11-06T20:23:01.588Z,6.44
2022-11-06T20:28:02.392Z,6.57
2022-11-06T20:33:04.676Z,6.65
2022-11-06T20:38:05.872Z,6.69
2022-11-06T20:43:06.804Z,6.74
2022-11-06T20:48:10.648Z,6.80
2022-11-06T20:53:11.823Z,6.81
2022-11-06T20:58:12.759Z,6.87
2022-11-06T21:03:15.276Z,6.90
2022-11-06T21:08:16.317Z,6.92
2022-11-06T21:13:17.207Z,6.93
2022-11-06T21:18:19.375Z,6.93
2022-11-06T21:23:20.569Z,7.01
2022-11-06T21:28:21.606Z,6.98
2022-11-06T21:33:23.728Z,7.00
2022-11-06T21:38:24.666Z,6.97
2022-11-06T21:43:26.933Z,7.06
2022-11-06T21:48:45.114Z,7.01
2022-11-06T21:54:05.031Z,7.00
2022-11-06T21:59:08.391Z,7.02
2022-11-06T22:04:11.440Z,7.01
2022-11-06T22:09:14.305Z,7.13
2022-11-06T22:14:16.858Z,7.18
2022-11-06T22:19:19.173Z,7.23
2022-11-06T22:24:20.016Z,7.24
2022-11-06T22:29:20.833Z,7.27
2022-11-06T22:34:22.974Z,7.34
2022-11-06T22:39:23.829Z,7.39
2022-11-06T22:44:24.705Z,7.37
2022-11-06T22:49:26.922Z,7.48
2022-11-06T22:54:27.716Z,7.47
2022-11-06T22:59:28.514Z,7.47
2022-11-06T23:04:30.661Z,7.54
2022-11-06T23:09:31.459Z,7.51
2022-11-06T23:14:32.335Z,7.58
2022-11-06T23:19:35.035Z,7.52
2022-11-06T23:24:35.860Z,7.42
2022-11-06T23:29:36.653Z,7.44
2022-11-06T23:34:38.897Z,7.46
2022-11-06T23:39:39.670Z,7.40
2022-11-06T23:44:58.128Z,7.45
2022-11-06T23:50:00.741Z,7.46
2022-11-06T23:55:01.688Z,7.49
